sensor_id;sensor_type;location;lat;lon;timestamp;pressure;altitude;pressure_sealevel;temperature;humidity
22605;BME280;11469;49.024;8.246;2023-09-12T00:01:40;99922.59;;;18.34;100.00
22605;BME280;11469;49.024;8.246;2023-09-12T00:04:05;99922.56;;;18.38;100.00
22605;BME280;11469;49.024;8.246;2023-09-12T00:06:31;99920.94;;;18.37;100.00
22605;BME280;11469;49.024;8.246;2023-09-12T00:08:56;99916.09;;;18.37;100.00
22605;BME280;11469;49.024;8.246;2023-09-12T00:11:22;99909.66;;;18.33;100.00
22605;BME280;11469;49.024;8.246;2023-09-12T00:13:50;99918.16;;;18.33;100.00
22605;BME280;11469;49.024;8.246;2023-09-12T00:16:16;99910.97;;;18.25;100.00
22605;BME280;11469;49.024;8.246;2023-09-12T00:18:41;99908.13;;;18.25;100.00
22605;BME280;11469;49.024;8.246;2023-09-12T00:21:07;99908.28;;;18.14;100.00
22605;BME280;11469;49.024;8.246;2023-09-12T00:23:33;99907.50;;;18.10;100.00
22605;BME280;11469;49.024;8.246;2023-09-12T00:25:58;99907.91;;;18.12;100.00
22605;BME280;11469;49.024;8.246;2023-09-12T00:28:24;99904.63;;;18.14;100.00
22605;BME280;11469;49.024;8.246;2023-09-12T00:30:51;99911.03;;;18.21;100.00
22605;BME280;11469;49.024;8.246;2023-09-12T00:33:16;99898.88;;;18.21;100.00
22605;BME280;11469;49.024;8.246;2023-09-12T00:35:43;99905.31;;;18.25;100.00
22605;BME280;11469;49.024;8.246;2023-09-12T00:38:09;99898.88;;;18.21;100.00
22605;BME280;11469;49.024;8.246;2023-09-12T00:40:34;99900.91;;;18.20;100.00
22605;BME280;11469;49.024;8.246;2023-09-12T00:42:59;99897.25;;;18.20;100.00
22605;BME280;11469;49.024;8.246;2023-09-12T00:45:25;99904.13;;;18.22;100.00
22605;BME280;11469;49.024;8.246;2023-09-12T00:47:51;99899.72;;;18.18;100.00
22605;BME280;11469;49.024;8.246;2023-09-12T00:50:18;99896.97;;;18.11;100.00
22605;BME280;11469;49.024;8.246;2023-09-12T00:52:46;99901.84;;;18.10;100.00
22605;BME280;11469;49.024;8.246;2023-09-12T00:55:12;99886.44;;;18.11;100.00
22605;BME280;11469;49.024;8.246;2023-09-12T00:57:38;99883.13;;;18.16;100.00
22605;BME280;11469;49.024;8.246;2023-09-12T01:00:05;99880.69;;;18.18;100.00
22605;BME280;11469;49.024;8.246;2023-09-12T01:02:39;99885.16;;;18.16;100.00
22605;BME280;11469;49.024;8.246;2023-09-12T01:05:09;99892.09;;;18.11;100.00
22605;BME280;11469;49.024;8.246;2023-09-12T01:07:35;99885.63;;;18.11;100.00
22605;BME280;11469;49.024;8.246;2023-09-12T01:10:01;99889.28;;;18.11;100.00
22605;BME280;11469;49.024;8.246;2023-09-12T01:12:28;99883.19;;;18.13;100.00
22605;BME280;11469;49.024;8.246;2023-09-12T01:14:54;99888.84;;;18.13;100.00
22605;BME280;11469;49.024;8.246;2023-09-12T01:17:20;99883.56;;;18.15;100.00
22605;BME280;11469;49.024;8.246;2023-09-12T01:19:45;99890.03;;;18.15;100.00
22605;BME280;11469;49.024;8.246;2023-09-12T01:27:55;99886.44;;;18.11;100.00
22605;BME280;11469;49.024;8.246;2023-09-12T01:30:25;99894.69;;;17.99;100.00
22605;BME280;11469;49.024;8.246;2023-09-12T01:32:53;99885.78;;;18.00;100.00
22605;BME280;11469;49.024;8.246;2023-09-12T01:35:18;99897.09;;;18.00;100.00
22605;BME280;11469;49.024;8.246;2023-09-12T01:37:44;99892.25;;;18.01;100.00
22605;BME280;11469;49.024;8.246;2023-09-12T01:40:09;99880.47;;;18.02;100.00
22605;BME280;11469;49.024;8.246;2023-09-12T01:42:45;99877.69;;;17.99;100.00
22605;BME280;11469;49.024;8.246;2023-09-12T01:45:13;99880.13;;;17.97;100.00
22605;BME280;11469;49.024;8.246;2023-09-12T01:47:41;99881.41;;;17.96;100.00
22605;BME280;11469;49.024;8.246;2023-09-12T01:50:08;99887.50;;;17.94;100.00
22605;BME280;11469;49.024;8.246;2023-09-12T01:52:35;99887.84;;;17.96;100.00
22605;BME280;11469;49.024;8.246;2023-09-12T01:55:02;99891.13;;;17.95;100.00
22605;BME280;11469;49.024;8.246;2023-09-12T01:57:28;99894.44;;;17.89;100.00
22605;BME280;11469;49.024;8.246;2023-09-12T01:59:53;99898.09;;;17.86;100.00
22605;BME280;11469;49.024;8.246;2023-09-12T02:02:19;99891.63;;;17.86;100.00
22605;BME280;11469;49.024;8.246;2023-09-12T02:04:58;99888.38;;;17.87;100.00
22605;BME280;11469;49.024;8.246;2023-09-12T02:07:29;99889.22;;;17.84;100.00
22605;BME280;11469;49.024;8.246;2023-09-12T02:09:58;99898.53;;;17.85;100.00
22605;BME280;11469;49.024;8.246;2023-09-12T02:12:25;99888.41;;;17.84;100.00
22605;BME280;11469;49.024;8.246;2023-09-12T02:14:50;99889.31;;;17.77;100.00
22605;BME280;11469;49.024;8.246;2023-09-12T02:17:16;99884.44;;;17.78;100.00
22605;BME280;11469;49.024;8.246;2023-09-12T02:19:41;99886.84;;;17.79;100.00
22605;BME280;11469;49.024;8.246;2023-09-12T02:22:06;99878.31;;;17.83;100.00
22605;BME280;11469;49.024;8.246;2023-09-12T02:24:34;99892.47;;;17.83;100.00
22605;BME280;11469;49.024;8.246;2023-09-12T02:27:00;99898.56;;;17.81;100.00
22605;BME280;11469;49.024;8.246;2023-09-12T02:29:25;99897.81;;;17.77;100.00
22605;BME280;11469;49.024;8.246;2023-09-12T02:31:51;99886.09;;;17.75;100.00
22605;BME280;11469;49.024;8.246;2023-09-12T02:34:16;99892.56;;;17.76;100.00
22605;BME280;11469;49.024;8.246;2023-09-12T02:36:42;99889.72;;;17.76;100.00
22605;BME280;11469;49.024;8.246;2023-09-12T02:39:07;99892.16;;;17.77;100.00
22605;BME280;11469;49.024;8.246;2023-09-12T02:41:32;99884.47;;;17.74;100.00
22605;BME280;11469;49.024;8.246;2023-09-12T02:43:58;99888.50;;;17.77;100.00
22605;BME280;11469;49.024;8.246;2023-09-12T02:46:24;99893.78;;;17.75;100.00
22605;BME280;11469;49.024;8.246;2023-09-12T02:48:49;99896.63;;;17.75;100.00
22605;BME280;11469;49.024;8.246;2023-09-12T02:51:15;99895.03;;;17.74;100.00
22605;BME280;11469;49.024;8.246;2023-09-12T02:53:40;99891.00;;;17.71;100.00
22605;BME280;11469;49.024;8.246;2023-09-12T02:56:05;99895.47;;;17.69;100.00
22605;BME280;11469;49.024;8.246;2023-09-12T02:58:31;99900.34;;;17.68;100.00
22605;BME280;11469;49.024;8.246;2023-09-12T03:00:56;99898.28;;;17.72;100.00
22605;BME280;11469;49.024;8.246;2023-09-12T03:03:22;99894.69;;;17.68;100.00
22605;BME280;11469;49.024;8.246;2023-09-12T03:05:47;99894.69;;;17.68;100.00
22605;BME280;11469;49.024;8.246;2023-09-12T03:08:12;99894.69;;;17.68;100.00
22605;BME280;11469;49.024;8.246;2023-09-12T03:10:38;99894.69;;;17.65;100.00
22605;BME280;11469;49.024;8.246;2023-09-12T03:13:03;99893.50;;;17.62;100.00
22605;BME280;11469;49.024;8.246;2023-09-12T03:15:28;99890.25;;;17.64;100.00
22605;BME280;11469;49.024;8.246;2023-09-12T03:17:54;99890.69;;;17.58;100.00
22605;BME280;11469;49.024;8.246;2023-09-12T03:20:21;99893.16;;;17.56;100.00
22605;BME280;11469;49.024;8.246;2023-09-12T03:22:53;99891.50;;;17.59;100.00
22605;BME280;11469;49.024;8.246;2023-09-12T03:25:19;99894.72;;;17.61;100.00
22605;BME280;11469;49.024;8.246;2023-09-12T03:27:44;99886.59;;;17.63;100.00
22605;BME280;11469;49.024;8.246;2023-09-12T03:30:10;99887.41;;;17.64;100.00
22605;BME280;11469;49.024;8.246;2023-09-12T03:32:35;99885.38;;;17.64;100.00
22605;BME280;11469;49.024;8.246;2023-09-12T03:35:00;99880.50;;;17.65;100.00
22605;BME280;11469;49.024;8.246;2023-09-12T03:37:26;99876.47;;;17.66;100.00
22605;BME280;11469;49.024;8.246;2023-09-12T03:39:53;99877.69;;;17.65;100.00
22605;BME280;11469;49.024;8.246;2023-09-12T03:42:19;99879.31;;;17.66;100.00
22605;BME280;11469;49.024;8.246;2023-09-12T03:44:44;99884.19;;;17.65;100.00
22605;BME280;11469;49.024;8.246;2023-09-12T03:47:09;99877.31;;;17.63;100.00
22605;BME280;11469;49.024;8.246;2023-09-12T03:49:35;99886.59;;;17.63;100.00
22605;BME280;11469;49.024;8.246;2023-09-12T03:52:00;99887.44;;;17.60;100.00
22605;BME280;11469;49.024;8.246;2023-09-12T03:54:25;99882.63;;;17.57;100.00
22605;BME280;11469;49.024;8.246;2023-09-12T03:56:51;99883.81;;;17.59;100.00
22605;BME280;11469;49.024;8.246;2023-09-12T03:59:16;99880.97;;;17.59;100.00
22605;BME280;11469;49.024;8.246;2023-09-12T04:01:42;99889.06;;;17.61;100.00
22605;BME280;11469;49.024;8.246;2023-09-12T04:04:07;99880.94;;;17.63;100.00
22605;BME280;11469;49.024;8.246;2023-09-12T04:06:32;99886.59;;;17.67;100.00
22605;BME280;11469;49.024;8.246;2023-09-12T04:08:58;99888.59;;;17.70;100.00
22605;BME280;11469;49.024;8.246;2023-09-12T04:11:23;99887.41;;;17.67;100.00
22605;BME280;11469;49.024;8.246;2023-09-12T04:13:48;99881.31;;;17.69;100.00
22605;BME280;11469;49.024;8.246;2023-09-12T04:16:14;99892.25;;;17.67;100.00
22605;BME280;11469;49.024;8.246;2023-09-12T04:18:39;99890.22;;;17.67;100.00
22605;BME280;11469;49.024;8.246;2023-09-12T04:21:05;99887.81;;;17.66;100.00
22605;BME280;11469;49.024;8.246;2023-09-12T04:23:30;99890.22;;;17.67;100.00
22605;BME280;11469;49.024;8.246;2023-09-12T04:25:56;99882.53;;;17.68;100.00
22605;BME280;11469;49.024;8.246;2023-09-12T04:28:21;99895.06;;;17.70;100.00
22605;BME280;11469;49.024;8.246;2023-09-12T04:30:47;99897.47;;;17.72;100.00
22605;BME280;11469;49.024;8.246;2023-09-12T04:33:12;99899.06;;;17.73;100.00
22605;BME280;11469;49.024;8.246;2023-09-12T04:35:37;99908.75;;;17.75;100.00
22605;BME280;11469;49.024;8.246;2023-09-12T04:38:03;99905.53;;;17.73;100.00
22605;BME280;11469;49.024;8.246;2023-09-12T04:40:28;99894.69;;;17.68;100.00
22605;BME280;11469;49.024;8.246;2023-09-12T04:42:54;99890.66;;;17.66;100.00
22605;BME280;11469;49.024;8.246;2023-09-12T04:45:20;99897.50;;;17.65;100.00
22605;BME280;11469;49.024;8.246;2023-09-12T04:47:45;99897.13;;;17.63;100.00
22605;BME280;11469;49.024;8.246;2023-09-12T04:50:11;99901.56;;;17.64;100.00
22605;BME280;11469;49.024;8.246;2023-09-12T04:52:37;99904.81;;;17.66;100.00
22605;BME280;11469;49.024;8.246;2023-09-12T04:55:03;99906.84;;;17.65;100.00
22605;BME280;11469;49.024;8.246;2023-09-12T04:57:29;99900.75;;;17.67;100.00
22605;BME280;11469;49.024;8.246;2023-09-12T04:59:56;99899.53;;;17.64;100.00
22605;BME280;11469;49.024;8.246;2023-09-12T05:02:21;99906.00;;;17.65;100.00
22605;BME280;11469;49.024;8.246;2023-09-12T05:04:47;99915.34;;;17.65;100.00
22605;BME280;11469;49.024;8.246;2023-09-12T05:07:12;99914.13;;;17.63;100.00
22605;BME280;11469;49.024;8.246;2023-09-12T05:09:37;99910.50;;;17.62;100.00
22605;BME280;11469;49.024;8.246;2023-09-12T05:12:03;99912.94;;;17.60;100.00
22605;BME280;11469;49.024;8.246;2023-09-12T05:14:29;99917.03;;;17.55;100.00
22605;BME280;11469;49.024;8.246;2023-09-12T05:16:54;99917.50;;;17.50;100.00
22605;BME280;11469;49.024;8.246;2023-09-12T05:19:20;99920.75;;;17.49;100.00
22605;BME280;11469;49.024;8.246;2023-09-12T05:21:50;99922.34;;;17.50;100.00
22605;BME280;11469;49.024;8.246;2023-09-12T05:24:15;99917.50;;;17.50;100.00
22605;BME280;11469;49.024;8.246;2023-09-12T05:26:40;99922.81;;;17.48;100.00
22605;BME280;11469;49.024;8.246;2023-09-12T05:29:06;99922.34;;;17.50;100.00
22605;BME280;11469;49.024;8.246;2023-09-12T05:31:31;99928.09;;;17.46;100.00
22605;BME280;11469;49.024;8.246;2023-09-12T05:33:57;99934.19;;;17.41;100.00
22605;BME280;11469;49.024;8.246;2023-09-12T05:36:22;99932.19;;;17.42;100.00
22605;BME280;11469;49.024;8.246;2023-09-12T05:38:47;99933.84;;;17.36;100.00
22605;BME280;11469;49.024;8.246;2023-09-12T05:41:13;99930.59;;;17.37;100.00
22605;BME280;11469;49.024;8.246;2023-09-12T05:43:38;99930.16;;;17.42;100.00
22605;BME280;11469;49.024;8.246;2023-09-12T05:46:03;99936.66;;;17.39;100.00
22605;BME280;11469;49.024;8.246;2023-09-12T05:48:29;99931.78;;;17.40;100.00
22605;BME280;11469;49.024;8.246;2023-09-12T05:50:54;99929.72;;;17.44;100.00
22605;BME280;11469;49.024;8.246;2023-09-12T05:53:19;99935.72;;;17.49;100.00
22605;BME280;11469;49.024;8.246;2023-09-12T05:55:45;99932.44;;;17.54;100.00
22605;BME280;11469;49.024;8.246;2023-09-12T05:58:11;99935.63;;;17.60;100.00
22605;BME280;11469;49.024;8.246;2023-09-12T06:00:37;99937.22;;;17.61;100.00
22605;BME280;11469;49.024;8.246;2023-09-12T06:03:02;99948.59;;;17.57;100.00
22605;BME280;11469;49.024;8.246;2023-09-12T06:05:28;99947.78;;;17.57;100.00
22605;BME280;11469;49.024;8.246;2023-09-12T06:07:53;99950.16;;;17.62;100.00
22605;BME280;11469;49.024;8.246;2023-09-12T06:10:19;99959.03;;;17.64;100.00
22605;BME280;11469;49.024;8.246;2023-09-12T06:12:44;99954.81;;;17.86;100.00
22605;BME280;11469;49.024;8.246;2023-09-12T06:15:10;99963.34;;;18.17;100.00
22605;BME280;11469;49.024;8.246;2023-09-12T06:17:35;99960.03;;;18.52;100.00
22605;BME280;11469;49.024;8.246;2023-09-12T06:20:01;99957.53;;;18.88;100.00
22605;BME280;11469;49.024;8.246;2023-09-12T06:22:26;99971.19;;;19.20;100.00
22605;BME280;11469;49.024;8.246;2023-09-12T06:24:52;99966.63;;;19.50;100.00
22605;BME280;11469;49.024;8.246;2023-09-12T06:27:17;99966.28;;;19.71;100.00
22605;BME280;11469;49.024;8.246;2023-09-12T06:29:48;99970.09;;;19.84;100.00
22605;BME280;11469;49.024;8.246;2023-09-12T06:32:18;99972.19;;;20.00;100.00
22605;BME280;11469;49.024;8.246;2023-09-12T06:34:43;99970.63;;;20.19;100.00
22605;BME280;11469;49.024;8.246;2023-09-12T06:37:11;99966.56;;;20.36;100.00
22605;BME280;11469;49.024;8.246;2023-09-12T06:39:37;99967.19;;;20.47;100.00
22605;BME280;11469;49.024;8.246;2023-09-12T06:42:02;99962.88;;;20.59;100.00
22605;BME280;11469;49.024;8.246;2023-09-12T06:44:28;99960.75;;;20.63;100.00
22605;BME280;11469;49.024;8.246;2023-09-12T06:46:53;99967.09;;;20.71;100.00
22605;BME280;11469;49.024;8.246;2023-09-12T06:49:19;99958.91;;;20.73;100.00
22605;BME280;11469;49.024;8.246;2023-09-12T06:51:44;99969.56;;;20.69;100.00
22605;BME280;11469;49.024;8.246;2023-09-12T06:54:09;99966.78;;;20.65;100.00
22605;BME280;11469;49.024;8.246;2023-09-12T06:56:35;99972.94;;;20.64;100.00
22605;BME280;11469;49.024;8.246;2023-09-12T06:59:03;99966.00;;;20.65;100.00
22605;BME280;11469;49.024;8.246;2023-09-12T07:01:29;99970.38;;;20.69;100.00
22605;BME280;11469;49.024;8.246;2023-09-12T07:03:54;99969.56;;;20.69;100.00
22605;BME280;11469;49.024;8.246;2023-09-12T07:06:21;99969.94;;;20.71;100.00
22605;BME280;11469;49.024;8.246;2023-09-12T07:08:47;99976.16;;;20.82;100.00
22605;BME280;11469;49.024;8.246;2023-09-12T07:11:12;99974.75;;;20.90;100.00
22605;BME280;11469;49.024;8.246;2023-09-12T07:13:38;99977.28;;;21.04;100.00
22605;BME280;11469;49.024;8.246;2023-09-12T07:16:03;99977.28;;;21.20;100.00
22605;BME280;11469;49.024;8.246;2023-09-12T07:18:30;99972.56;;;21.30;100.00
22605;BME280;11469;49.024;8.246;2023-09-12T07:20:58;99963.69;;;21.28;100.00
22605;BME280;11469;49.024;8.246;2023-09-12T07:23:24;99965.91;;;21.37;100.00
22605;BME280;11469;49.024;8.246;2023-09-12T07:25:49;99959.22;;;21.43;100.00
22605;BME280;11469;49.024;8.246;2023-09-12T07:28:15;99970.00;;;21.52;98.68
22605;BME280;11469;49.024;8.246;2023-09-12T07:30:40;99963.47;;;21.68;99.47
22605;BME280;11469;49.024;8.246;2023-09-12T07:33:06;99969.09;;;21.71;95.64
22605;BME280;11469;49.024;8.246;2023-09-12T07:35:31;99970.03;;;21.81;96.22
22605;BME280;11469;49.024;8.246;2023-09-12T07:37:57;99971.59;;;21.98;95.79
22605;BME280;11469;49.024;8.246;2023-09-12T07:40:22;99957.66;;;22.16;95.36
22605;BME280;11469;49.024;8.246;2023-09-12T07:42:47;99966.59;;;22.31;93.90
22605;BME280;11469;49.024;8.246;2023-09-12T07:45:13;99968.69;;;22.43;91.64
22605;BME280;11469;49.024;8.246;2023-09-12T07:47:39;99970.53;;;22.50;90.13
22605;BME280;11469;49.024;8.246;2023-09-12T07:50:04;99977.53;;;22.62;88.75
22605;BME280;11469;49.024;8.246;2023-09-12T07:52:32;99975.56;;;22.71;86.22
22605;BME280;11469;49.024;8.246;2023-09-12T07:55:03;99969.56;;;22.82;85.03
22605;BME280;11469;49.024;8.246;2023-09-12T07:57:29;99970.25;;;22.99;84.61
22605;BME280;11469;49.024;8.246;2023-09-12T07:59:55;99973.19;;;23.21;83.41
22605;BME280;11469;49.024;8.246;2023-09-12T08:02:21;99969.09;;;23.34;82.41
22605;BME280;11469;49.024;8.246;2023-09-12T08:04:46;99971.59;;;23.45;81.17
22605;BME280;11469;49.024;8.246;2023-09-12T08:07:12;99977.44;;;23.54;79.20
22605;BME280;11469;49.024;8.246;2023-09-12T08:09:54;99972.84;;;23.57;78.83
22605;BME280;11469;49.024;8.246;2023-09-12T08:12:22;99974.53;;;23.67;78.42
22605;BME280;11469;49.024;8.246;2023-09-12T08:14:48;99966.63;;;23.71;76.71
22605;BME280;11469;49.024;8.246;2023-09-12T08:17:14;99978.84;;;23.71;77.10
22605;BME280;11469;49.024;8.246;2023-09-12T08:19:40;99983.56;;;23.65;76.92
22605;BME280;11469;49.024;8.246;2023-09-12T08:22:06;99977.38;;;23.67;78.40
22605;BME280;11469;49.024;8.246;2023-09-12T08:24:33;99976.25;;;23.64;77.66
22605;BME280;11469;49.024;8.246;2023-09-12T08:26:59;99987.91;;;23.70;77.09
22605;BME280;11469;49.024;8.246;2023-09-12T08:29:24;99991.66;;;23.79;76.98
22605;BME280;11469;49.024;8.246;2023-09-12T08:31:49;99996.25;;;23.77;76.93
22605;BME280;11469;49.024;8.246;2023-09-12T08:34:15;99994.53;;;23.79;77.86
22605;BME280;11469;49.024;8.246;2023-09-12T08:36:40;99997.47;;;23.89;78.64
22605;BME280;11469;49.024;8.246;2023-09-12T08:39:06;99990.31;;;24.06;78.42
22605;BME280;11469;49.024;8.246;2023-09-12T08:41:34;99992.06;;;24.25;78.59
22605;BME280;11469;49.024;8.246;2023-09-12T08:44:00;99990.09;;;24.22;78.26
22605;BME280;11469;49.024;8.246;2023-09-12T08:46:26;99997.41;;;24.36;78.20
22605;BME280;11469;49.024;8.246;2023-09-12T08:48:53;99991.75;;;24.45;77.51
22605;BME280;11469;49.024;8.246;2023-09-12T08:51:22;99992.63;;;24.55;77.78
22605;BME280;11469;49.024;8.246;2023-09-12T08:53:49;99990.03;;;24.78;77.26
22605;BME280;11469;49.024;8.246;2023-09-12T08:56:15;99999.22;;;24.95;75.67
22605;BME280;11469;49.024;8.246;2023-09-12T08:58:41;99989.25;;;25.09;74.40
22605;BME280;11469;49.024;8.246;2023-09-12T09:01:06;99991.81;;;25.16;74.11
22605;BME280;11469;49.024;8.246;2023-09-12T09:03:33;99988.72;;;25.32;72.88
22605;BME280;11469;49.024;8.246;2023-09-12T09:05:59;99984.31;;;25.50;73.37
22605;BME280;11469;49.024;8.246;2023-09-12T09:08:26;99980.94;;;25.60;70.14
22605;BME280;11469;49.024;8.246;2023-09-12T09:10:57;99985.16;;;25.68;70.77
22605;BME280;11469;49.024;8.246;2023-09-12T09:13:23;99976.56;;;25.77;70.58
22605;BME280;11469;49.024;8.246;2023-09-12T09:15:49;99980.25;;;25.87;70.37
22605;BME280;11469;49.024;8.246;2023-09-12T09:18:14;99974.97;;;25.76;69.96
22605;BME280;11469;49.024;8.246;2023-09-12T09:20:40;99977.03;;;25.76;69.57
22605;BME280;11469;49.024;8.246;2023-09-12T09:23:08;99979.91;;;25.76;68.95
22605;BME280;11469;49.024;8.246;2023-09-12T09:25:40;99973.84;;;25.74;70.42
22605;BME280;11469;49.024;8.246;2023-09-12T09:28:19;99967.31;;;25.73;70.30
22605;BME280;11469;49.024;8.246;2023-09-12T09:30:47;99966.81;;;25.75;70.84
22605;BME280;11469;49.024;8.246;2023-09-12T09:33:13;99966.50;;;25.73;69.90
22605;BME280;11469;49.024;8.246;2023-09-12T09:35:43;99966.13;;;25.62;71.04
22605;BME280;11469;49.024;8.246;2023-09-12T09:38:09;99964.91;;;25.72;71.63
22605;BME280;11469;49.024;8.246;2023-09-12T09:40:35;99963.47;;;25.76;71.72
22605;BME280;11469;49.024;8.246;2023-09-12T09:43:02;99955.03;;;25.82;70.43
22605;BME280;11469;49.024;8.246;2023-09-12T09:45:29;99951.34;;;26.00;70.59
22605;BME280;11469;49.024;8.246;2023-09-12T09:48:05;99955.03;;;26.28;70.52
22605;BME280;11469;49.024;8.246;2023-09-12T09:50:33;99966.22;;;26.44;69.12
22605;BME280;11469;49.024;8.246;2023-09-12T09:53:00;99963.13;;;26.57;69.05
22605;BME280;11469;49.024;8.246;2023-09-12T09:55:26;99962.63;;;26.67;69.07
22605;BME280;11469;49.024;8.246;2023-09-12T09:57:52;99957.44;;;26.90;68.63
22605;BME280;11469;49.024;8.246;2023-09-12T10:00:20;99953.09;;;26.94;66.47
22605;BME280;11469;49.024;8.246;2023-09-12T10:02:47;99965.56;;;27.00;66.37
22605;BME280;11469;49.024;8.246;2023-09-12T10:05:15;99958.78;;;27.22;64.05
22605;BME280;11469;49.024;8.246;2023-09-12T10:07:46;99956.81;;;27.28;65.15
22605;BME280;11469;49.024;8.246;2023-09-12T10:10:12;99957.66;;;27.43;64.26
22605;BME280;11469;49.024;8.246;2023-09-12T10:12:43;99952.34;;;27.51;63.83
22605;BME280;11469;49.024;8.246;2023-09-12T10:15:12;99950.88;;;27.55;64.38
22605;BME280;11469;49.024;8.246;2023-09-12T10:17:42;99949.44;;;27.60;63.07
22605;BME280;11469;49.024;8.246;2023-09-12T10:20:15;99952.44;;;27.65;62.81
22605;BME280;11469;49.024;8.246;2023-09-12T10:22:49;99948.84;;;27.80;63.71
22605;BME280;11469;49.024;8.246;2023-09-12T10:25:17;99944.19;;;27.82;63.54
22605;BME280;11469;49.024;8.246;2023-09-12T10:27:42;99943.91;;;27.95;63.46
22605;BME280;11469;49.024;8.246;2023-09-12T10:30:08;99938.19;;;28.09;61.94
22605;BME280;11469;49.024;8.246;2023-09-12T10:32:34;99936.59;;;28.08;62.16
22605;BME280;11469;49.024;8.246;2023-09-12T10:35:02;99941.66;;;28.14;62.36
22605;BME280;11469;49.024;8.246;2023-09-12T10:37:29;99935.06;;;27.98;61.37
22605;BME280;11469;49.024;8.246;2023-09-12T10:39:58;99931.00;;;28.05;61.87
22605;BME280;11469;49.024;8.246;2023-09-12T10:42:27;99918.69;;;28.04;61.40
22605;BME280;11469;49.024;8.246;2023-09-12T10:44:54;99927.94;;;28.08;62.24
22605;BME280;11469;49.024;8.246;2023-09-12T10:47:20;99927.63;;;28.30;60.61
22605;BME280;11469;49.024;8.246;2023-09-12T10:49:46;99929.69;;;28.45;59.83
22605;BME280;11469;49.024;8.246;2023-09-12T10:52:27;99924.31;;;28.52;59.66
22605;BME280;11469;49.024;8.246;2023-09-12T10:54:52;99919.66;;;28.55;58.76
22605;BME280;11469;49.024;8.246;2023-09-12T10:57:19;99920.66;;;28.52;57.91
22605;BME280;11469;49.024;8.246;2023-09-12T11:02:37;99911.81;;;28.70;57.03
22605;BME280;11469;49.024;8.246;2023-09-12T11:05:03;99914.28;;;28.77;58.34
22605;BME280;11469;49.024;8.246;2023-09-12T11:07:43;99910.09;;;28.78;57.21
22605;BME280;11469;49.024;8.246;2023-09-12T11:12:42;99903.31;;;28.96;56.20
22605;BME280;11469;49.024;8.246;2023-09-12T11:15:08;99904.22;;;28.87;56.15
22605;BME280;11469;49.024;8.246;2023-09-12T11:17:42;99910.28;;;29.04;54.55
22605;BME280;11469;49.024;8.246;2023-09-12T11:20:08;99908.72;;;29.23;52.57
22605;BME280;11469;49.024;8.246;2023-09-12T11:22:38;99905.25;;;29.39;51.85
22605;BME280;11469;49.024;8.246;2023-09-12T11:25:24;99901.47;;;29.48;48.86
22605;BME280;11469;49.024;8.246;2023-09-12T11:30:19;99893.91;;;29.51;49.50
22605;BME280;11469;49.024;8.246;2023-09-12T11:32:54;99891.59;;;29.55;49.17
22605;BME280;11469;49.024;8.246;2023-09-12T11:35:24;99892.75;;;29.43;51.02
22605;BME280;11469;49.024;8.246;2023-09-12T11:37:57;99886.41;;;29.59;49.86
22605;BME280;11469;49.024;8.246;2023-09-12T11:42:58;99891.81;;;29.71;50.69
22605;BME280;11469;49.024;8.246;2023-09-12T11:45:24;99888.03;;;29.86;50.18
22605;BME280;11469;49.024;8.246;2023-09-12T11:47:50;99888.66;;;29.95;48.19
22605;BME280;11469;49.024;8.246;2023-09-12T11:50:33;99886.06;;;29.97;47.73
22605;BME280;11469;49.024;8.246;2023-09-12T11:53:25;99885.66;;;30.04;48.03
22605;BME280;11469;49.024;8.246;2023-09-12T11:55:54;99886.63;;;30.22;47.33
22605;BME280;11469;49.024;8.246;2023-09-12T11:58:20;99891.66;;;30.27;47.16
22605;BME280;11469;49.024;8.246;2023-09-12T12:00:51;99890.44;;;30.39;47.80
22605;BME280;11469;49.024;8.246;2023-09-12T12:03:18;99887.66;;;30.50;47.47
22605;BME280;11469;49.024;8.246;2023-09-12T12:05:45;99887.44;;;30.54;47.95
22605;BME280;11469;49.024;8.246;2023-09-12T12:08:11;99881.47;;;30.57;49.35
22605;BME280;11469;49.024;8.246;2023-09-12T12:10:37;99878.63;;;30.63;48.61
22605;BME280;11469;49.024;8.246;2023-09-12T12:13:04;99883.94;;;30.70;48.47
22605;BME280;11469;49.024;8.246;2023-09-12T12:15:30;99867.28;;;30.59;48.28
22605;BME280;11469;49.024;8.246;2023-09-12T12:17:56;99869.91;;;30.57;49.23
22605;BME280;11469;49.024;8.246;2023-09-12T12:20:22;99863.66;;;30.64;48.42
22605;BME280;11469;49.024;8.246;2023-09-12T12:22:48;99869.47;;;30.70;49.09
22605;BME280;11469;49.024;8.246;2023-09-12T12:25:14;99861.09;;;30.78;47.23
22605;BME280;11469;49.024;8.246;2023-09-12T12:27:41;99864.31;;;30.85;48.08
22605;BME280;11469;49.024;8.246;2023-09-12T12:30:08;99858.00;;;30.87;48.27
22605;BME280;11469;49.024;8.246;2023-09-12T12:32:34;99851.72;;;30.88;48.38
22605;BME280;11469;49.024;8.246;2023-09-12T12:35:00;99850.22;;;30.98;46.79
22605;BME280;11469;49.024;8.246;2023-09-12T12:37:31;99848.66;;;31.03;48.05
22605;BME280;11469;49.024;8.246;2023-09-12T12:39:57;99849.75;;;31.11;47.60
22605;BME280;11469;49.024;8.246;2023-09-12T12:42:22;99849.03;;;31.22;46.17
22605;BME280;11469;49.024;8.246;2023-09-12T12:44:56;99844.84;;;31.23;46.38
22605;BME280;11469;49.024;8.246;2023-09-12T12:47:21;99843.28;;;31.27;45.92
22605;BME280;11469;49.024;8.246;2023-09-12T12:49:53;99842.81;;;31.34;45.09
22605;BME280;11469;49.024;8.246;2023-09-12T12:52:23;99825.97;;;31.39;43.86
22605;BME280;11469;49.024;8.246;2023-09-12T12:54:49;99837.00;;;31.34;43.67
22605;BME280;11469;49.024;8.246;2023-09-12T12:57:19;99831.53;;;31.42;43.17
22605;BME280;11469;49.024;8.246;2023-09-12T12:59:46;99826.31;;;31.52;43.56
22605;BME280;11469;49.024;8.246;2023-09-12T13:02:12;99829.25;;;31.63;43.71
22605;BME280;11469;49.024;8.246;2023-09-12T13:04:38;99823.97;;;31.67;44.06
22605;BME280;11469;49.024;8.246;2023-09-12T13:07:04;99819.22;;;31.58;42.62
22605;BME280;11469;49.024;8.246;2023-09-12T13:09:29;99813.44;;;31.64;42.43